Time;durP1;ratioP1;P1;durP2;ratioP2;P2;SDS_P1;SDS_P2;PMS_P1;PMS_P2;Temp;Humidity;BMP_temperature;BMP_pressure;BME280_temperature;BME280_humidity;BME280_pressure;Samples;Min_cycle;Max_cycle;Signal;HPM_P1;HPM_P2
2024/03/12 00:01:04;;;;;;;63.72;20.45;;;7.50;99.90;;;;;;5036593;28;20025;-78
2024/03/12 00:03:30;;;;;;;56.50;20.58;;;7.50;99.90;;;;;;5034940;28;20021;-78
2024/03/12 00:05:59;;;;;;;50.83;21.25;;;7.50;99.90;;;;;;5035682;28;20496;-78
2024/03/12 00:08:28;;;;;;;54.58;19.05;;;7.50;99.90;;;;;;5035801;28;20017;-78
2024/03/12 00:10:57;;;;;;;51.90;19.08;;;7.50;99.90;;;;;;5034627;28;20054;-78
2024/03/12 00:13:23;;;;;;;53.42;20.52;;;7.50;99.90;;;;;;5035593;28;20040;-78
2024/03/12 00:15:49;;;;;;;53.13;19.73;;;7.50;99.90;;;;;;5034695;28;20033;-78
2024/03/12 00:18:15;;;;;;;53.28;20.13;;;7.50;99.90;;;;;;5036439;28;20017;-78
2024/03/12 00:20:43;;;;;;;52.58;19.05;;;7.50;99.90;;;;;;5035149;28;20028;-78
2024/03/12 00:23:08;;;;;;;52.45;18.90;;;7.50;99.90;;;;;;5034192;28;20389;-78
2024/03/12 00:25:34;;;;;;;55.83;19.75;;;7.80;99.90;;;;;;5036009;28;20024;-78
2024/03/12 00:28:00;;;;;;;60.13;20.80;;;7.50;99.90;;;;;;5034067;28;20485;-78
2024/03/12 00:30:30;;;;;;;56.97;20.27;;;7.50;99.90;;;;;;5033749;28;20029;-78
2024/03/12 00:33:00;;;;;;;63.70;22.13;;;7.50;99.90;;;;;;5034970;28;20112;-78
2024/03/12 00:35:32;;;;;;;61.85;20.80;;;7.50;99.90;;;;;;5035158;28;20432;-77
2024/03/12 00:37:58;;;;;;;53.38;20.38;;;7.50;99.90;;;;;;5035265;28;20025;-77
2024/03/12 00:40:33;;;;;;;63.53;21.88;;;7.50;99.90;;;;;;5033911;28;20037;-78
2024/03/12 00:42:59;;;;;;;53.00;18.67;;;7.50;99.90;;;;;;5033822;28;20013;-78
2024/03/12 00:45:26;;;;;;;60.40;23.00;;;7.50;99.90;;;;;;5035123;28;20022;-77
2024/03/12 00:47:53;;;;;;;57.28;20.60;;;7.50;99.90;;;;;;5035610;28;20077;-78
2024/03/12 00:50:22;;;;;;;61.13;20.85;;;7.50;99.90;;;;;;5033768;28;20374;-78
2024/03/12 00:52:52;;;;;;;55.70;20.25;;;7.50;99.90;;;;;;5033458;28;20029;-77
2024/03/12 00:55:20;;;;;;;51.10;20.58;;;7.60;99.90;;;;;;5035407;28;20604;-78
2024/03/12 00:57:50;;;;;;;53.17;18.30;;;7.50;99.90;;;;;;5033502;28;20485;-77
2024/03/12 01:00:17;;;;;;;53.65;20.13;;;7.50;99.90;;;;;;5034277;28;20500;-77
2024/03/12 01:02:49;;;;;;;64.35;19.20;;;7.50;99.90;;;;;;5033322;28;20439;-77
2024/03/12 01:05:20;;;;;;;56.28;21.38;;;7.50;99.90;;;;;;5034575;28;20389;-78
2024/03/12 01:07:47;;;;;;;58.65;19.60;;;7.50;99.90;;;;;;5033338;28;20550;-78
2024/03/12 01:10:14;;;;;;;60.22;20.33;;;7.50;99.90;;;;;;5033457;28;20021;-78
2024/03/12 01:12:40;;;;;;;53.80;20.45;;;7.60;99.90;;;;;;5034348;28;20040;-77
2024/03/12 01:15:10;;;;;;;57.60;20.95;;;7.60;99.90;;;;;;5033813;28;20044;-78
2024/03/12 01:17:39;;;;;;;58.00;19.90;;;7.50;99.90;;;;;;5034831;28;20120;-78
2024/03/12 01:20:09;;;;;;;50.05;20.45;;;7.50;99.90;;;;;;5033911;28;20397;-78
2024/03/12 01:22:36;;;;;;;57.53;19.63;;;7.50;99.90;;;;;;5033741;28;20124;-78
2024/03/12 01:25:03;;;;;;;52.13;18.83;;;7.50;99.90;;;;;;5033147;28;20397;-78
2024/03/12 01:27:28;;;;;;;60.17;20.63;;;7.50;99.90;;;;;;5034748;28;20076;-78
2024/03/12 01:29:55;;;;;;;52.15;19.85;;;7.50;99.90;;;;;;5034767;28;20481;-78
2024/03/12 01:32:20;;;;;;;52.95;18.35;;;7.50;99.90;;;;;;5034894;28;20033;-78
2024/03/12 01:34:47;;;;;;;57.15;19.67;;;7.50;99.90;;;;;;5033473;28;20084;-78
2024/03/12 01:37:15;;;;;;;67.05;22.13;;;7.60;99.90;;;;;;5034250;28;20056;-77
2024/03/12 01:39:41;;;;;;;50.00;19.02;;;7.50;99.90;;;;;;5033173;28;20551;-78
2024/03/12 01:42:07;;;;;;;56.13;21.02;;;7.50;99.90;;;;;;5034294;28;20014;-77
2024/03/12 01:44:37;;;;;;;58.58;19.52;;;7.60;99.90;;;;;;5036461;28;20470;-78
2024/03/12 01:47:04;;;;;;;59.05;21.98;;;7.60;99.90;;;;;;5032360;28;20526;-77
2024/03/12 01:49:31;;;;;;;53.08;19.75;;;7.60;99.90;;;;;;5033420;28;20036;-77
2024/03/12 01:51:58;;;;;;;55.03;18.65;;;7.60;99.90;;;;;;5032325;28;20026;-77
2024/03/12 01:54:24;;;;;;;51.40;19.23;;;7.60;99.90;;;;;;5033588;28;20036;-78
2024/03/12 01:56:50;;;;;;;53.03;19.13;;;7.60;99.90;;;;;;5032103;28;20033;-78
2024/03/12 01:59:16;;;;;;;50.50;18.05;;;7.50;99.90;;;;;;5032295;28;20481;-77
2024/03/12 02:01:41;;;;;;;56.17;19.50;;;7.50;99.90;;;;;;5033546;28;20017;-77
2024/03/12 02:04:09;;;;;;;56.15;17.52;;;8.30;99.90;;;;;;5034033;28;20018;-78
2024/03/12 02:06:34;;;;;;;57.97;18.65;;;7.60;99.90;;;;;;5032951;28;20028;-78
2024/03/12 02:09:03;;;;;;;60.15;19.27;;;7.60;99.90;;;;;;5034509;28;20030;-78
2024/03/12 02:11:28;;;;;;;57.10;19.02;;;7.60;99.90;;;;;;5033315;28;20017;-78
2024/03/12 02:13:54;;;;;;;52.17;17.70;;;7.60;99.90;;;;;;5032093;28;20045;-78
2024/03/12 02:16:20;;;;;;;57.55;19.48;;;7.60;99.90;;;;;;5033775;28;20064;-78
2024/03/12 02:18:46;;;;;;;48.95;18.83;;;7.60;99.90;;;;;;5037665;28;20385;-80
2024/03/12 02:21:11;;;;;;;44.83;17.08;;;7.60;99.90;;;;;;5041967;28;20026;-79
2024/03/12 02:23:41;;;;;;;53.50;16.45;;;7.60;99.90;;;;;;5038877;28;20033;-78
2024/03/12 02:26:09;;;;;;;57.33;18.08;;;7.60;99.90;;;;;;5042702;28;20036;-78
2024/03/12 02:28:38;;;;;;;46.90;17.10;;;7.60;99.90;;;;;;5034754;28;20024;-78
2024/03/12 02:31:05;;;;;;;56.53;16.83;;;7.60;99.90;;;;;;5033219;28;20021;-78
2024/03/12 02:33:31;;;;;;;54.17;16.67;;;7.60;99.90;;;;;;5039631;28;20029;-79
2024/03/12 02:35:57;;;;;;;54.17;16.80;;;7.50;99.90;;;;;;5038966;28;20032;-78
2024/03/12 02:38:23;;;;;;;53.83;17.08;;;7.50;99.90;;;;;;5034024;28;20033;-78
2024/03/12 02:40:49;;;;;;;45.75;16.25;;;7.50;99.90;;;;;;5033560;28;20505;-77
2024/03/12 02:43:15;;;;;;;52.50;16.88;;;7.50;99.90;;;;;;5032532;28;20465;-78
2024/03/12 02:45:42;;;;;;;51.03;16.83;;;7.50;99.90;;;;;;5032182;28;20022;-78
2024/03/12 02:48:09;;;;;;;55.17;16.80;;;7.50;99.90;;;;;;5033043;28;20071;-78
2024/03/12 02:50:36;;;;;;;52.80;16.13;;;7.50;99.90;;;;;;5033666;28;20056;-77
2024/03/12 02:53:01;;;;;;;46.13;16.42;;;7.50;99.90;;;;;;5035924;28;20053;-78
2024/03/12 02:55:28;;;;;;;56.83;18.23;;;7.50;99.90;;;;;;5033203;28;20385;-78
2024/03/12 02:57:54;;;;;;;47.35;16.45;;;7.50;99.90;;;;;;5035655;28;20022;-78
2024/03/12 03:00:19;;;;;;;41.33;15.50;;;7.50;99.90;;;;;;5033698;28;20021;-78
2024/03/12 03:02:45;;;;;;;40.75;15.73;;;7.50;99.90;;;;;;5036209;28;20024;-78
2024/03/12 03:05:12;;;;;;;56.28;16.83;;;7.50;99.90;;;;;;5032713;28;20018;-78
2024/03/12 03:07:40;;;;;;;45.35;14.73;;;7.40;99.90;;;;;;5033700;28;20029;-77
2024/03/12 03:10:06;;;;;;;49.80;16.57;;;7.50;99.90;;;;;;5032469;28;20393;-77
2024/03/12 03:12:32;;;;;;;55.17;17.33;;;7.50;99.90;;;;;;5040391;28;20272;-78
2024/03/12 03:14:57;;;;;;;48.13;17.50;;;7.50;99.90;;;;;;5036827;28;20471;-78
2024/03/12 03:17:23;;;;;;;49.25;15.98;;;7.50;99.90;;;;;;5038032;28;20025;-78
2024/03/12 03:19:49;;;;;;;50.30;17.08;;;7.50;99.90;;;;;;5037544;28;20030;-78
2024/03/12 03:22:15;;;;;;;52.95;16.58;;;7.40;99.90;;;;;;5039715;28;20036;-78
2024/03/12 03:24:41;;;;;;;51.80;16.30;;;8.40;99.90;;;;;;5039507;28;20140;-77
2024/03/12 03:27:10;;;;;;;52.25;17.10;;;7.40;99.90;;;;;;5039568;28;20049;-78
2024/03/12 03:29:36;;;;;;;62.83;18.95;;;7.40;99.90;;;;;;5038350;28;20393;-78
2024/03/12 03:32:06;;;;;;;59.95;17.85;;;7.40;99.90;;;;;;5040383;28;20538;-79
2024/03/12 03:34:32;;;;;;;55.17;17.17;;;7.40;99.90;;;;;;5036567;28;20026;-77
2024/03/12 03:37:01;;;;;;;51.78;16.25;;;7.30;99.90;;;;;;5037602;28;20405;-78
2024/03/12 03:39:28;;;;;;;55.92;17.48;;;7.30;99.90;;;;;;5040714;28;20025;-77
2024/03/12 03:41:55;;;;;;;50.45;16.88;;;7.30;99.90;;;;;;5043978;28;20022;-79
2024/03/12 03:44:21;;;;;;;54.30;15.93;;;7.30;99.90;;;;;;5039422;28;20017;-78
2024/03/12 03:46:47;;;;;;;51.60;15.77;;;7.30;99.90;;;;;;5036062;28;20100;-78
2024/03/12 03:49:14;;;;;;;45.65;14.18;;;7.30;99.90;;;;;;5035613;28;20108;-78
2024/03/12 03:51:43;;;;;;;47.22;15.77;;;7.30;99.90;;;;;;5035680;28;20025;-78
2024/03/12 03:54:09;;;;;;;;;;;7.30;99.90;;;;;;5036106;28;20025;-78
2024/03/12 03:56:35;;;;;;;54.75;14.30;;;7.30;99.90;;;;;;5034504;28;19963;-78
2024/03/12 03:59:01;;;;;;;44.10;15.63;;;7.30;99.90;;;;;;5035558;28;20064;-79
2024/03/12 04:01:30;;;;;;;51.30;14.55;;;7.30;99.90;;;;;;5035682;28;20101;-78
2024/03/12 04:03:55;;;;;;;38.80;13.85;;;7.30;99.90;;;;;;5034784;28;20018;-78
2024/03/12 04:06:22;;;;;;;54.63;14.73;;;7.40;99.90;;;;;;5037021;28;20048;-78
2024/03/12 04:08:53;;;;;;;42.05;13.80;;;7.30;99.90;;;;;;5036311;28;20030;-79
2024/03/12 04:11:20;;;;;;;49.60;13.80;;;7.00;99.90;;;;;;5037168;28;20164;-77
2024/03/12 04:13:47;;;;;;;47.38;15.35;;;7.30;99.90;;;;;;5039917;28;20037;-77
2024/03/12 04:16:12;;;;;;;43.70;13.27;;;7.30;99.90;;;;;;5040409;28;20021;-77
2024/03/12 04:18:38;;;;;;;49.72;14.95;;;7.30;99.90;;;;;;5043225;28;20044;-79
2024/03/12 04:21:05;;;;;;;43.72;13.27;;;7.30;99.90;;;;;;5036989;28;20029;-78
2024/03/12 04:23:31;;;;;;;49.65;14.13;;;7.30;99.90;;;;;;5036545;28;20108;-78
2024/03/12 04:25:56;;;;;;;47.88;14.93;;;7.40;99.90;;;;;;5036880;28;20492;-78
2024/03/12 04:28:22;;;;;;;42.17;13.25;;;7.40;99.90;;;;;;5036183;28;20105;-78
2024/03/12 04:30:48;;;;;;;49.50;13.45;;;7.40;99.90;;;;;;5036547;28;20105;-78
2024/03/12 04:33:15;;;;;;;47.90;14.98;;;7.40;99.90;;;;;;5036601;28;20021;-78
2024/03/12 04:35:42;;;;;;;53.78;14.20;;;7.40;99.90;;;;;;5038859;28;20527;-78
2024/03/12 04:38:07;;;;;;;40.75;12.13;;;7.30;99.90;;;;;;5034199;28;20043;-78
2024/03/12 04:40:33;;;;;;;48.78;12.25;;;7.30;99.90;;;;;;5035392;28;20029;-78
2024/03/12 04:42:59;;;;;;;42.08;13.10;;;7.40;99.90;;;;;;5037521;28;20034;-78
2024/03/12 04:45:25;;;;;;;49.40;13.05;;;7.40;99.90;;;;;;5038887;28;20021;-78
2024/03/12 04:47:50;;;;;;;42.38;12.93;;;7.30;99.90;;;;;;5039140;28;20053;-77
2024/03/12 04:50:19;;;;;;;49.85;14.43;;;7.30;99.90;;;;;;5043442;28;20029;-78
2024/03/12 04:52:44;;;;;;;48.75;13.13;;;7.30;99.90;;;;;;5037368;28;20032;-79
2024/03/12 04:55:11;;;;;;;49.47;13.13;;;7.30;99.90;;;;;;5037797;28;20033;-77
2024/03/12 04:57:36;;;;;;;43.58;11.30;;;7.30;99.90;;;;;;5033927;28;20108;-78
2024/03/12 05:00:13;;;;;;;45.50;13.60;;;7.30;99.90;;;;;;5039703;28;20499;-78
2024/03/12 05:02:39;;;;;;;42.80;13.02;;;7.30;99.90;;;;;;5035626;28;20366;-78
2024/03/12 05:05:07;;;;;;;40.75;11.57;;;7.20;99.90;;;;;;5037140;28;20022;-77
2024/03/12 05:07:33;;;;;;;30.00;9.20;;;7.30;99.90;;;;;;5035038;28;20029;-78
2024/03/12 05:09:59;;;;;;;38.22;12.65;;;7.30;99.90;;;;;;5035452;28;20098;-78
2024/03/12 05:12:25;;;;;;;47.90;13.27;;;7.80;99.90;;;;;;5035773;28;20108;-78
2024/03/12 05:14:51;;;;;;;40.10;13.13;;;7.80;99.90;;;;;;5034717;28;20472;-78
2024/03/12 05:17:17;;;;;;;49.78;13.35;;;7.20;99.90;;;;;;5036043;28;20021;-78
2024/03/12 05:19:43;;;;;;;44.25;12.20;;;7.20;99.90;;;;;;5036757;28;20367;-77
2024/03/12 05:22:10;;;;;;;38.58;13.07;;;7.90;99.90;;;;;;5038621;28;20025;-78
2024/03/12 05:24:36;;;;;;;45.70;12.88;;;7.20;99.90;;;;;;5039575;28;20029;-78
2024/03/12 05:27:02;;;;;;;43.90;11.65;;;7.20;99.90;;;;;;5036462;28;20043;-77
2024/03/12 05:29:36;;;;;;;37.15;10.88;;;7.20;99.90;;;;;;5036869;28;20029;-78
2024/03/12 05:32:17;;;;;;;42.65;11.77;;;7.20;99.90;;;;;;5035868;28;20032;-78
2024/03/12 05:34:47;;;;;;;47.90;13.18;;;7.20;99.90;;;;;;5033406;28;20025;-78
2024/03/12 05:37:28;;;;;;;43.20;13.23;;;8.40;99.90;;;;;;5032573;28;20116;-77
2024/03/12 05:40:13;;;;;;;45.20;12.38;;;7.20;99.90;;;;;;5038102;28;20183;-79
2024/03/12 05:48:09;;;;;;;42.97;12.50;;;8.30;99.90;;;;;;5037255;28;20172;-78
2024/03/12 05:50:39;;;;;;;49.40;14.77;;;7.10;99.90;;;;;;5036996;28;20022;-78
2024/03/12 05:53:05;;;;;;;40.63;13.73;;;7.10;99.90;;;;;;5037609;28;20025;-78
2024/03/12 05:55:30;;;;;;;46.45;12.85;;;7.10;99.90;;;;;;5037442;28;20021;-78
2024/03/12 05:57:56;;;;;;;37.55;11.50;;;8.30;99.90;;;;;;5037364;28;20059;-78
2024/03/12 06:00:23;;;;;;;37.90;11.65;;;7.10;99.90;;;;;;5035778;28;20060;-78
2024/03/12 06:02:49;;;;;;;37.75;12.75;;;7.10;99.90;;;;;;5038844;28;20044;-78
2024/03/12 06:05:16;;;;;;;38.15;11.90;;;7.10;99.90;;;;;;5042574;28;20032;-78
2024/03/12 06:07:44;;;;;;;40.88;12.38;;;7.10;99.90;;;;;;5040751;28;20021;-78
2024/03/12 06:10:11;;;;;;;38.10;10.70;;;7.10;99.90;;;;;;5034285;28;20025;-78
2024/03/12 06:12:39;;;;;;;37.13;12.30;;;7.00;99.90;;;;;;5034946;28;20041;-79
2024/03/12 06:15:06;;;;;;;39.17;12.23;;;7.10;99.90;;;;;;5036258;28;20401;-79
2024/03/12 06:17:32;;;;;;;38.38;9.40;;;7.10;99.90;;;;;;5042306;28;20032;-79
2024/03/12 06:19:58;;;;;;;38.97;10.48;;;7.10;99.90;;;;;;5040147;28;20366;-78
2024/03/12 06:22:24;;;;;;;30.88;10.60;;;7.10;99.90;;;;;;5040212;28;20014;-79
2024/03/12 06:24:50;;;;;;;34.63;10.98;;;7.10;99.90;;;;;;5040492;28;20028;-80
2024/03/12 06:27:18;;;;;;;47.13;11.88;;;7.10;99.90;;;;;;5044585;28;20026;-80
2024/03/12 06:29:49;;;;;;;45.97;9.90;;;7.10;99.90;;;;;;5044809;28;20101;-79
2024/03/12 06:32:17;;;;;;;36.53;11.32;;;7.10;99.90;;;;;;5042975;28;20108;-79
2024/03/12 06:34:43;;;;;;;41.78;11.15;;;7.10;99.90;;;;;;5034291;28;20448;-81
2024/03/12 06:37:09;;;;;;;41.83;11.65;;;7.00;99.90;;;;;;5019486;28;20030;-79
2024/03/12 06:39:35;;;;;;;44.17;11.45;;;;;;;;;;5014227;28;20464;-79
2024/03/12 06:42:02;;;;;;;39.25;10.73;;;7.10;99.90;;;;;;5016130;28;20540;-79
2024/03/12 06:44:28;;;;;;;33.13;10.57;;;7.00;99.90;;;;;;5018067;28;20018;-79
2024/03/12 06:46:54;;;;;;;38.22;10.48;;;8.90;99.90;;;;;;5014743;28;20401;-78
2024/03/12 06:49:20;;;;;;;37.33;10.60;;;7.10;99.90;;;;;;5016147;28;20033;-79
2024/03/12 06:51:47;;;;;;;35.08;11.38;;;7.10;99.90;;;;;;5022058;28;20026;-79
2024/03/12 06:54:13;;;;;;;31.65;10.88;;;7.10;99.90;;;;;;5020677;28;20026;-79
2024/03/12 06:56:43;;;;;;;35.28;10.23;;;7.10;99.90;;;;;;5019225;28;20092;-79
2024/03/12 06:59:14;;;;;;;38.40;11.43;;;7.10;99.90;;;;;;5019115;28;20486;-79
2024/03/12 07:01:41;;;;;;;39.10;9.90;;;7.10;99.90;;;;;;5018521;28;20026;-79
2024/03/12 07:04:11;;;;;;;38.10;9.88;;;7.10;99.90;;;;;;5020102;28;20478;-79
2024/03/12 07:06:42;;;;;;;26.80;8.27;;;7.10;99.90;;;;;;5018024;28;20092;-78
2024/03/12 07:09:09;;;;;;;32.78;9.52;;;7.20;99.90;;;;;;5017687;28;20576;-79
2024/03/12 07:11:39;;;;;;;32.50;9.57;;;7.20;99.90;;;;;;5017557;28;20512;-79
2024/03/12 07:14:23;;;;;;;29.70;9.20;;;7.20;99.90;;;;;;5027143;28;20030;-79
2024/03/12 07:16:50;;;;;;;36.97;10.05;;;7.20;99.90;;;;;;5027877;28;20018;-79
2024/03/12 07:19:16;;;;;;;38.22;10.52;;;7.20;99.90;;;;;;5027417;28;20022;-79
2024/03/12 07:21:41;;;;;;;38.70;10.10;;;7.20;99.90;;;;;;5025940;28;20022;-79
2024/03/12 07:24:07;;;;;;;40.60;10.55;;;7.20;99.90;;;;;;5026291;28;20053;-79
2024/03/12 07:26:34;;;;;;;31.65;11.20;;;7.20;99.90;;;;;;5027259;28;20160;-79
2024/03/12 07:29:02;;;;;;;37.03;10.18;;;7.20;99.90;;;;;;5027313;28;20505;-79
2024/03/12 07:31:28;;;;;;;32.03;9.52;;;7.20;99.90;;;;;;5021297;28;20505;-78
2024/03/12 07:33:55;;;;;;;25.92;8.85;;;7.20;99.90;;;;;;5017034;28;20026;-79
2024/03/12 07:36:21;;;;;;;32.67;9.70;;;7.20;99.90;;;;;;5017804;28;20022;-79
2024/03/12 07:38:47;;;;;;;41.35;11.02;;;7.30;99.90;;;;;;5017177;28;20132;-79
2024/03/12 07:41:14;;;;;;;28.92;8.95;;;7.20;99.90;;;;;;5017279;28;20072;-79
2024/03/12 07:43:40;;;;;;;36.75;8.80;;;8.00;99.90;;;;;;5019354;28;20022;-79
2024/03/12 07:46:07;;;;;;;25.65;8.60;;;7.20;99.90;;;;;;5018220;28;20179;-79
2024/03/12 07:48:36;;;;;;;23.83;8.13;;;7.30;99.90;;;;;;5017176;28;20022;-79
2024/03/12 07:51:02;;;;;;;35.50;9.13;;;7.30;99.90;;;;;;5023025;28;20544;-79
2024/03/12 07:53:29;;;;;;;26.98;9.13;;;7.30;99.90;;;;;;5020525;28;20014;-80
2024/03/12 07:55:58;;;;;;;34.80;9.32;;;7.30;99.90;;;;;;5020066;28;20428;-79
2024/03/12 07:58:24;;;;;;;29.88;7.68;;;7.30;99.90;;;;;;5018372;28;20049;-79
2024/03/12 08:00:49;;;;;;;27.58;8.38;;;7.40;99.90;;;;;;5019810;28;20026;-79
2024/03/12 08:03:15;;;;;;;27.20;7.38;;;7.40;99.90;;;;;;5019181;28;20093;-79
2024/03/12 08:05:40;;;;;;;21.55;7.28;;;7.40;99.90;;;;;;5017707;28;20014;-79
2024/03/12 08:08:08;;;;;;;21.85;8.18;;;7.50;99.90;;;;;;5018385;28;20026;-79
2024/03/12 08:10:34;;;;;;;35.25;8.77;;;7.50;99.90;;;;;;5017564;28;20026;-79
2024/03/12 08:13:05;;;;;;;24.60;7.88;;;7.50;99.90;;;;;;5021848;28;20093;-80
2024/03/12 08:15:33;;;;;;;26.60;8.73;;;7.50;99.90;;;;;;5025960;28;20006;-80
2024/03/12 08:18:01;;;;;;;26.23;8.98;;;7.50;99.90;;;;;;5021223;28;20034;-84
2024/03/12 08:20:27;;;;;;;30.40;8.43;;;7.60;99.90;;;;;;5021111;28;20036;-84
2024/03/12 08:22:53;;;;;;;29.15;7.65;;;;;;;;;;5022258;28;20029;-84
2024/03/12 08:25:20;;;;;;;23.83;6.95;;;;;;;;;;5019987;28;20033;-84
2024/03/12 08:27:48;;;;;;;24.50;8.02;;;;;;;;;;5021351;28;20034;-84
2024/03/12 08:30:15;;;;;;;23.23;6.57;;;7.60;99.90;;;;;;5018662;28;20026;-85
2024/03/12 08:32:44;;;;;;;20.75;7.13;;;;;;;;;;5017620;28;20113;-85
2024/03/12 08:35:13;;;;;;;24.25;7.55;;;7.70;99.90;;;;;;5017290;28;20036;-85
2024/03/12 08:37:38;;;;;;;;;;;7.70;99.90;;;;;;5019112;28;20042;-85
2024/03/12 08:40:07;;;;;;;26.17;7.97;;;7.70;99.90;;;;;;5018550;28;19905;-84
2024/03/12 08:42:32;;;;;;;21.23;7.60;;;7.70;99.90;;;;;;5020892;28;20021;-84
2024/03/12 08:44:58;;;;;;;26.58;8.50;;;7.70;99.90;;;;;;5018681;28;20018;-84
2024/03/12 08:47:25;;;;;;;24.00;8.15;;;7.70;99.90;;;;;;5019786;28;20049;-84
2024/03/12 08:49:51;;;;;;;27.02;8.43;;;7.70;99.90;;;;;;5017174;28;20033;-84
2024/03/12 08:52:17;;;;;;;20.20;7.03;;;;;;;;;;5017987;28;20033;-84
2024/03/12 08:54:43;;;;;;;23.23;8.02;;;7.70;99.90;;;;;;5018856;28;20474;-84
2024/03/12 08:57:09;;;;;;;24.27;8.60;;;;;;;;;;5019050;28;20096;-84
2024/03/12 08:59:34;;;;;;;29.75;8.45;;;7.80;99.90;;;;;;5018017;28;20029;-84
2024/03/12 09:02:02;;;;;;;20.00;7.65;;;7.70;99.90;;;;;;5018716;28;20022;-84
2024/03/12 09:04:30;;;;;;;30.42;9.23;;;7.80;99.90;;;;;;5019028;28;20025;-84
2024/03/12 09:06:57;;;;;;;23.80;8.27;;;7.80;99.90;;;;;;5018254;28;20021;-84
2024/03/12 09:09:23;;;;;;;23.30;8.48;;;7.80;99.90;;;;;;5017906;28;20022;-84
2024/03/12 09:11:49;;;;;;;27.98;8.48;;;7.80;99.90;;;;;;5017331;28;20033;-84
2024/03/12 09:14:15;;;;;;;29.83;9.75;;;7.80;99.90;;;;;;5019288;28;20132;-84
2024/03/12 09:16:41;;;;;;;24.95;8.27;;;;;;;;;;5018372;28;20026;-84
2024/03/12 09:19:08;;;;;;;23.20;8.55;;;7.70;99.90;;;;;;5017428;28;20026;-84
2024/03/12 09:21:34;;;;;;;25.63;8.77;;;;;;;;;;5016526;28;20057;-84
2024/03/12 09:24:00;;;;;;;23.75;8.55;;;;;;;;;;5017339;28;20026;-84
2024/03/12 09:26:27;;;;;;;27.38;7.80;;;;;;;;;;5018196;28;20399;-84
2024/03/12 09:28:53;;;;;;;21.92;7.28;;;7.70;99.90;;;;;;5019475;28;20037;-83
2024/03/12 09:31:18;;;;;;;19.23;7.50;;;7.80;99.90;;;;;;5019202;28;20030;-83
2024/03/12 09:33:47;;;;;;;29.65;8.70;;;7.80;99.90;;;;;;5019529;28;20026;-84
2024/03/12 09:36:14;;;;;;;26.85;7.95;;;;;;;;;;5019485;28;20094;-83
2024/03/12 09:38:40;;;;;;;22.48;7.43;;;7.90;99.90;;;;;;5019232;28;20097;-83
2024/03/12 09:41:09;;;;;;;21.58;7.93;;;7.90;99.90;;;;;;5020210;28;20025;-84
2024/03/12 09:43:37;;;;;;;20.60;8.45;;;8.00;99.90;;;;;;5020813;28;20022;-83
2024/03/12 09:46:03;;;;;;;23.13;8.48;;;7.90;99.90;;;;;;5019089;28;20027;-83
2024/03/12 09:48:30;;;;;;;23.05;8.93;;;8.20;99.90;;;;;;5019247;28;20029;-83
2024/03/12 09:50:59;;;;;;;27.90;8.43;;;8.20;99.90;;;;;;5020148;28;20030;-83
2024/03/12 09:53:25;;;;;;;;;;;8.20;99.90;;;;;;5020400;28;20018;-83
2024/03/12 09:55:51;;;;;;;26.52;8.82;;;8.40;99.90;;;;;;5019140;28;19979;-83
2024/03/12 09:58:17;;;;;;;24.80;9.20;;;8.50;99.90;;;;;;5018752;28;20429;-85
2024/03/12 10:00:43;;;;;;;23.17;8.77;;;8.60;99.90;;;;;;5018164;28;20028;-85
2024/03/12 10:03:10;;;;;;;32.85;9.40;;;;;;;;;;5019183;28;20026;-83
2024/03/12 10:05:39;;;;;;;30.30;9.73;;;;;;;;;;5019518;28;20362;-83
2024/03/12 10:08:14;;;;;;;26.13;9.20;;;9.00;99.90;;;;;;5017645;28;20026;-83
2024/03/12 10:10:43;;;;;;;20.13;8.32;;;9.00;99.90;;;;;;5019253;28;20026;-83
2024/03/12 10:13:16;;;;;;;21.20;8.85;;;9.00;99.90;;;;;;5019321;28;20030;-83
2024/03/12 10:16:01;;;;;;;21.42;8.63;;;9.10;99.90;;;;;;5019606;28;20432;-83
2024/03/12 10:18:28;;;;;;;26.30;8.73;;;9.10;99.90;;;;;;5020598;28;20029;-84
2024/03/12 10:20:55;;;;;;;22.70;7.93;;;9.00;99.90;;;;;;5019388;28;20042;-83
2024/03/12 10:23:29;;;;;;;22.58;7.43;;;9.00;99.90;;;;;;5021522;28;20025;-83
2024/03/12 10:26:15;;;;;;;22.40;7.65;;;9.00;99.90;;;;;;5024648;28;20065;-84
2024/03/12 10:28:45;;;;;;;17.55;7.18;;;9.10;99.90;;;;;;5022370;28;20093;-85
2024/03/12 10:31:12;;;;;;;19.33;7.18;;;8.90;99.90;;;;;;5022425;28;20033;-83
2024/03/12 10:33:40;;;;;;;21.17;8.73;;;8.90;99.90;;;;;;5023146;28;20018;-83
2024/03/12 10:36:10;;;;;;;24.75;7.57;;;9.10;99.90;;;;;;5021581;28;20014;-81
2024/03/12 10:38:37;;;;;;;24.30;8.77;;;8.90;99.90;;;;;;5021070;28;20026;-82
2024/03/12 10:41:18;;;;;;;20.23;8.43;;;9.00;99.90;;;;;;5021080;28;20018;-81
2024/03/12 10:43:45;;;;;;;22.27;8.75;;;9.10;99.90;;;;;;5021555;28;20038;-81
2024/03/12 10:46:21;;;;;;;22.15;7.45;;;9.00;99.90;;;;;;5021582;28;20062;-81
2024/03/12 10:48:50;;;;;;;20.52;8.75;;;9.10;99.90;;;;;;5022148;28;20060;-82
2024/03/12 10:51:17;;;;;;;25.23;8.43;;;9.20;99.90;;;;;;5022140;28;20437;-82
2024/03/12 10:53:47;;;;;;;26.83;9.40;;;9.10;99.90;;;;;;5021499;28;20022;-81
2024/03/12 10:56:13;;;;;;;24.02;8.95;;;9.10;99.90;;;;;;5022574;28;20478;-82
2024/03/12 10:58:40;;;;;;;30.38;9.15;;;9.10;99.90;;;;;;5022133;28;20500;-82
2024/03/12 11:01:06;;;;;;;22.75;8.90;;;9.20;99.90;;;;;;5022806;28;20026;-81
2024/03/12 11:03:34;;;;;;;21.90;8.48;;;9.40;99.90;;;;;;5021142;28;20029;-82
2024/03/12 11:06:02;;;;;;;32.00;9.65;;;9.30;99.90;;;;;;5021139;28;20105;-82
2024/03/12 11:08:29;;;;;;;23.52;9.07;;;9.50;99.90;;;;;;5023560;28;20029;-82
2024/03/12 11:10:56;;;;;;;24.98;7.97;;;9.70;99.90;;;;;;5022777;28;20478;-81
2024/03/12 11:13:23;;;;;;;25.10;9.60;;;9.60;99.90;;;;;;5022397;28;20117;-82
2024/03/12 11:15:49;;;;;;;25.70;9.98;;;9.80;99.90;;;;;;5021053;28;20052;-82
2024/03/12 11:18:34;;;;;;;23.75;9.00;;;10.00;99.90;;;;;;5021249;28;20026;-82
2024/03/12 11:21:00;;;;;;;25.58;9.80;;;10.20;99.90;;;;;;5019968;28;20026;-82
2024/03/12 11:23:28;;;;;;;27.92;9.80;;;10.90;99.90;;;;;;5022756;28;20018;-82
2024/03/12 11:25:57;;;;;;;27.40;11.07;;;10.90;99.90;;;;;;5022612;28;20091;-82
2024/03/12 11:28:26;;;;;;;25.80;9.15;;;11.10;99.90;;;;;;5022464;28;20076;-81
2024/03/12 11:30:55;;;;;;;25.13;9.02;;;11.10;99.90;;;;;;5023968;28;20022;-81
2024/03/12 11:33:39;;;;;;;;;;;11.00;99.90;;;;;;5021228;28;20030;-81
2024/03/12 11:36:16;;;;;;;23.42;8.50;;;10.70;99.90;;;;;;5020478;28;19911;-81
2024/03/12 11:38:42;;;;;;;26.17;10.23;;;10.60;99.90;;;;;;5020953;28;20030;-82
2024/03/12 11:41:09;;;;;;;25.23;8.98;;;10.60;99.90;;;;;;5020361;28;20383;-82
2024/03/12 11:43:38;;;;;;;25.08;10.55;;;;;;;;;;5020328;28;20075;-81
2024/03/12 11:46:07;;;;;;;;;;;11.00;99.90;;;;;;5022694;28;20080;-81
2024/03/12 11:48:38;;;;;;;23.25;9.15;;;11.10;99.90;;;;;;5021162;28;19906;-81
2024/03/12 11:51:05;;;;;;;23.30;8.50;;;11.20;99.90;;;;;;5022583;28;20026;-81
2024/03/12 11:53:35;;;;;;;21.13;8.25;;;11.20;99.90;;;;;;5019171;28;20026;-81
2024/03/12 11:56:10;;;;;;;24.20;9.18;;;11.30;99.90;;;;;;5019598;28;20438;-82
2024/03/12 11:58:49;;;;;;;21.83;8.35;;;11.30;99.90;;;;;;5020310;28;20057;-81
2024/03/12 12:01:21;;;;;;;24.88;9.50;;;11.30;99.90;;;;;;5020914;28;20022;-81
2024/03/12 12:03:55;;;;;;;21.55;9.20;;;11.30;99.90;;;;;;5022510;28;20006;-81
2024/03/12 12:06:20;;;;;;;26.60;9.75;;;11.40;99.90;;;;;;5020278;28;20441;-81
2024/03/12 12:08:47;;;;;;;24.27;8.88;;;;;;;;;;5019815;28;20014;-81
2024/03/12 12:11:15;;;;;;;24.33;9.20;;;12.00;99.90;;;;;;5019344;28;20026;-81
2024/03/12 12:13:41;;;;;;;23.42;9.07;;;11.90;99.90;;;;;;5018051;28;20401;-81
2024/03/12 12:16:14;;;;;;;26.55;9.27;;;12.00;99.90;;;;;;5020423;28;20026;-81
2024/03/12 12:18:40;;;;;;;25.67;9.77;;;12.00;99.90;;;;;;5020234;28;20033;-81
2024/03/12 12:21:16;;;;;;;23.98;9.77;;;11.90;99.90;;;;;;5020407;28;20504;-81
2024/03/12 12:23:49;;;;;;;23.60;8.75;;;12.00;99.90;;;;;;5019451;28;20113;-81
2024/03/12 12:26:20;;;;;;;23.58;8.85;;;12.00;99.90;;;;;;5019711;28;20058;-81
2024/03/12 12:28:52;;;;;;;21.63;8.75;;;12.00;99.90;;;;;;5021422;28;20033;-81
2024/03/12 12:31:19;;;;;;;23.75;8.85;;;12.00;99.90;;;;;;5019993;28;20497;-81
2024/03/12 12:33:51;;;;;;;24.60;9.13;;;12.10;99.90;;;;;;5019164;28;20021;-81
2024/03/12 12:36:26;;;;;;;27.10;10.43;;;12.20;99.90;;;;;;5018215;28;20049;-81
2024/03/12 12:38:54;;;;;;;25.70;9.02;;;12.10;99.90;;;;;;5020506;28;20022;-81
2024/03/12 12:41:23;;;;;;;26.00;9.52;;;;;;;;;;5021677;28;20018;-81
2024/03/12 12:43:52;;;;;;;29.35;9.95;;;12.10;99.90;;;;;;5020797;28;20477;-81
2024/03/12 12:46:25;;;;;;;;;;;12.10;99.90;;;;;;5020248;28;20014;-81
2024/03/12 12:48:53;;;;;;;28.00;9.80;;;12.20;99.90;;;;;;5019442;28;19948;-81
2024/03/12 12:51:23;;;;;;;23.67;9.15;;;12.20;99.90;;;;;;5022177;28;20022;-81
2024/03/12 12:53:49;;;;;;;26.27;9.70;;;12.20;99.90;;;;;;5021745;28;20028;-81